createdAt,value
2023-02-22T00:02:13.141Z,8.00
2023-02-22T00:04:41.308Z,7.90
2023-02-22T00:07:09.508Z,7.90
2023-02-22T00:09:39.079Z,7.90
2023-02-22T00:12:08.836Z,7.90
2023-02-22T00:14:36.867Z,7.70
2023-02-22T00:17:04.937Z,7.70
2023-02-22T00:19:32.995Z,7.70
2023-02-22T00:22:01.079Z,7.70
2023-02-22T00:24:29.569Z,7.70
2023-02-22T00:26:59.018Z,7.70
2023-02-22T00:29:28.651Z,7.70
2023-02-22T00:31:56.724Z,7.70
2023-02-22T00:34:25.250Z,7.70
2023-02-22T00:36:53.265Z,7.60
2023-02-22T00:39:21.327Z,7.60
2023-02-22T00:41:49.835Z,7.60
2023-02-22T00:44:19.223Z,7.60
2023-02-22T00:46:47.191Z,7.60
2023-02-22T00:49:15.105Z,7.60
2023-02-22T00:51:43.088Z,7.50
2023-02-22T00:54:11.947Z,7.50
2023-02-22T00:56:40.401Z,7.50
2023-02-22T00:59:08.482Z,7.50
2023-02-22T01:01:37.808Z,7.50
2023-02-22T01:04:06.804Z,7.50
2023-02-22T01:06:35.326Z,7.50
2023-02-22T01:09:04.175Z,7.40
2023-02-22T01:11:32.244Z,7.50
2023-02-22T01:14:00.513Z,7.40
2023-02-22T01:16:28.771Z,7.40
2023-02-22T01:18:58.024Z,7.40
2023-02-22T01:21:26.116Z,7.30
2023-02-22T01:23:55.056Z,7.20
2023-02-22T01:26:23.023Z,7.10
2023-02-22T01:28:50.926Z,7.00
2023-02-22T01:31:19.255Z,7.00
2023-02-22T01:33:47.424Z,7.00
2023-02-22T01:36:16.796Z,7.00
2023-02-22T01:38:45.206Z,6.90
2023-02-22T01:41:13.851Z,6.90
2023-02-22T01:43:41.808Z,6.80
2023-02-22T01:46:22.165Z,6.70
2023-02-22T01:48:54.558Z,6.70
2023-02-22T01:51:26.583Z,6.70
2023-02-22T01:53:59.323Z,6.60
2023-02-22T01:56:30.722Z,6.60
2023-02-22T01:59:10.805Z,6.60
2023-02-22T02:01:42.972Z,6.60
2023-02-22T02:04:13.872Z,6.60
2023-02-22T02:06:44.391Z,6.60
2023-02-22T02:09:20.194Z,6.60
2023-02-22T02:11:49.873Z,6.50
2023-02-22T02:14:18.543Z,6.60
2023-02-22T02:16:49.514Z,6.50
2023-02-22T02:19:27.521Z,6.50
2023-02-22T02:22:29.795Z,6.50
2023-02-22T02:25:34.551Z,6.50
2023-02-22T02:28:42.121Z,6.50
2023-02-22T02:31:52.990Z,6.40
2023-02-22T02:34:29.566Z,6.40
2023-02-22T02:37:01.773Z,6.40
2023-02-22T02:39:36.075Z,6.40
2023-02-22T02:42:07.282Z,6.40
2023-02-22T02:44:42.205Z,6.40
2023-02-22T02:47:16.102Z,6.40
2023-02-22T02:49:52.054Z,6.30
2023-02-22T02:52:22.729Z,6.30
2023-02-22T02:54:51.713Z,6.30
2023-02-22T02:57:19.937Z,6.20
2023-02-22T02:59:47.877Z,6.20
2023-02-22T03:02:30.450Z,6.20
2023-02-22T03:05:14.356Z,6.30
2023-02-22T03:07:51.612Z,6.30
2023-02-22T03:10:38.142Z,6.30
2023-02-22T03:13:15.256Z,6.30
2023-02-22T03:15:54.160Z,6.30
2023-02-22T03:18:30.080Z,6.30
2023-02-22T03:21:10.304Z,6.30
2023-02-22T03:23:45.540Z,6.30
2023-02-22T03:26:23.937Z,6.20
2023-02-22T03:28:55.786Z,6.10
2023-02-22T03:31:27.719Z,6.10
2023-02-22T03:34:00.703Z,6.10
2023-02-22T03:36:32.719Z,6.10
2023-02-22T03:39:04.360Z,6.10
2023-02-22T03:41:38.606Z,6.00
2023-02-22T03:44:09.662Z,6.00
2023-02-22T03:46:41.185Z,6.00
2023-02-22T03:49:13.386Z,6.10
2023-02-22T03:51:43.109Z,6.00
2023-02-22T03:54:16.409Z,6.00
2023-02-22T03:56:50.881Z,6.00
2023-02-22T03:59:19.959Z,5.90
2023-02-22T04:01:47.853Z,5.90
2023-02-22T04:04:16.078Z,5.90
2023-02-22T04:06:45.676Z,5.90
2023-02-22T04:09:13.556Z,5.90
2023-02-22T04:11:41.598Z,5.90
2023-02-22T04:14:09.924Z,5.90
2023-02-22T04:16:37.930Z,5.90
2023-02-22T04:19:06.327Z,5.90
2023-02-22T04:21:34.237Z,5.90
2023-02-22T04:24:03.707Z,5.90
2023-02-22T04:26:31.746Z,5.80
2023-02-22T04:28:59.758Z,5.90
2023-02-22T04:31:27.843Z,5.90
2023-02-22T04:33:55.898Z,5.90
2023-02-22T04:36:23.954Z,5.90
2023-02-22T04:38:52.025Z,5.90
2023-02-22T04:41:23.869Z,5.90
2023-02-22T04:43:53.095Z,5.80
2023-02-22T04:46:21.243Z,5.90
2023-02-22T04:48:49.223Z,5.80
2023-02-22T04:51:17.840Z,5.80
2023-02-22T04:53:46.093Z,5.70
2023-02-22T04:56:14.065Z,5.70
2023-02-22T04:58:43.682Z,5.60
2023-02-22T05:01:11.641Z,5.60
2023-02-22T05:03:39.581Z,5.60
2023-02-22T05:06:08.538Z,5.50
2023-02-22T05:08:36.548Z,5.40
2023-02-22T05:11:05.249Z,5.40
2023-02-22T05:13:33.231Z,5.30
2023-02-22T05:16:03.954Z,5.30
2023-02-22T05:18:32.026Z,5.20
2023-02-22T05:20:59.993Z,5.20
2023-02-22T05:23:27.895Z,5.20
2023-02-22T05:25:55.866Z,5.20
2023-02-22T05:28:23.787Z,5.20
2023-02-22T05:30:51.708Z,5.20
2023-02-22T05:33:21.113Z,5.20
2023-02-22T05:35:49.085Z,5.20
2023-02-22T05:38:17.389Z,5.10
2023-02-22T05:40:45.709Z,5.10
2023-02-22T05:43:13.717Z,5.10
2023-02-22T05:45:41.668Z,5.20
2023-02-22T05:48:09.814Z,5.20
2023-02-22T05:50:39.114Z,5.20
2023-02-22T05:53:07.263Z,5.20
2023-02-22T05:55:35.236Z,5.30
2023-02-22T05:58:05.886Z,5.30
2023-02-22T06:00:34.191Z,5.30
2023-02-22T06:03:04.891Z,5.30
2023-02-22T06:05:33.189Z,5.40
2023-02-22T06:08:03.530Z,5.40
2023-02-22T06:10:31.964Z,5.40
2023-02-22T06:13:00.560Z,5.50
2023-02-22T06:15:29.635Z,5.50
2023-02-22T06:17:58.946Z,5.50
2023-02-22T06:20:31.499Z,5.50
2023-02-22T06:23:00.117Z,5.50
2023-02-22T06:25:32.285Z,5.50
2023-02-22T06:28:00.954Z,5.70
2023-02-22T06:30:30.332Z,6.00
2023-02-22T06:32:58.498Z,6.20
2023-02-22T06:35:26.737Z,6.30
2023-02-22T06:37:54.901Z,6.30
2023-02-22T06:40:22.919Z,6.30
2023-02-22T06:42:57.930Z,6.30
2023-02-22T06:45:26.156Z,6.30
2023-02-22T06:47:55.589Z,6.40
2023-02-22T06:50:26.978Z,6.50
2023-02-22T06:52:55.101Z,6.60
2023-02-22T06:55:25.012Z,6.80
2023-02-22T06:57:54.782Z,7.00
2023-02-22T07:00:25.369Z,7.20
2023-02-22T07:02:56.873Z,7.40
2023-02-22T07:05:26.685Z,7.50
2023-02-22T07:07:59.935Z,7.80
2023-02-22T07:10:35.503Z,7.90
2023-02-22T07:13:06.412Z,8.00
2023-02-22T07:15:37.775Z,8.10
2023-02-22T07:18:12.194Z,8.10
2023-02-22T07:20:43.745Z,8.10
2023-02-22T07:23:17.955Z,8.20
2023-02-22T07:26:01.714Z,8.30
2023-02-22T07:28:31.638Z,8.40
2023-02-22T07:31:01.625Z,8.50
2023-02-22T07:33:33.081Z,8.70
2023-02-22T07:36:56.023Z,9.30
2023-02-22T07:39:00.209Z,9.60
2023-02-22T07:41:33.146Z,10.10
2023-02-22T07:44:02.805Z,10.50
2023-02-22T07:46:30.962Z,11.10
2023-02-22T07:48:59.141Z,11.80
2023-02-22T07:51:27.625Z,12.70
2023-02-22T07:53:55.446Z,13.20
2023-02-22T07:56:23.391Z,13.50
2023-02-22T07:58:51.260Z,13.60
2023-02-22T08:01:20.501Z,13.60
2023-02-22T08:03:48.429Z,13.50
2023-02-22T08:06:16.469Z,13.60
2023-02-22T08:08:44.557Z,13.80
2023-02-22T08:11:12.424Z,14.00
2023-02-22T08:13:40.763Z,14.40
2023-02-22T08:16:09.191Z,14.90
2023-02-22T08:18:39.623Z,15.30
2023-02-22T08:21:07.668Z,15.60
2023-02-22T08:23:35.642Z,15.90
2023-02-22T08:26:07.568Z,16.00
2023-02-22T08:28:43.807Z,16.50
2023-02-22T08:31:11.727Z,16.90
2023-02-22T08:33:41.512Z,17.40
2023-02-22T08:36:10.725Z,17.40
2023-02-22T08:38:38.617Z,17.30
2023-02-22T08:41:06.914Z,17.30
2023-02-22T08:43:35.513Z,17.40
2023-02-22T08:46:03.506Z,17.50
2023-02-22T08:48:31.438Z,17.60
2023-02-22T08:51:00.835Z,17.60
2023-02-22T08:53:28.875Z,18.00
2023-02-22T08:55:56.962Z,18.90
2023-02-22T08:58:25.058Z,19.40
2023-02-22T09:00:53.063Z,19.30
2023-02-22T09:03:21.135Z,19.10
2023-02-22T09:05:49.366Z,19.20
2023-02-22T09:08:19.329Z,19.60
2023-02-22T09:10:47.782Z,19.90
2023-02-22T09:13:16.097Z,20.00
2023-02-22T09:15:44.228Z,20.10
2023-02-22T09:18:14.619Z,20.30
2023-02-22T09:20:42.857Z,20.60
2023-02-22T09:23:11.127Z,20.90
2023-02-22T09:25:40.876Z,21.10
2023-02-22T09:28:09.227Z,21.10
2023-02-22T09:30:38.190Z,21.20
2023-02-22T09:33:10.045Z,21.20
2023-02-22T09:35:42.150Z,21.40
2023-02-22T09:38:11.522Z,21.80
2023-02-22T09:40:45.068Z,22.10
2023-02-22T09:43:25.398Z,22.20
2023-02-22T09:46:13.852Z,21.50
2023-02-22T09:48:52.426Z,21.00
2023-02-22T09:51:23.133Z,20.20
2023-02-22T09:53:59.196Z,19.70
2023-02-22T09:56:30.576Z,19.20
2023-02-22T09:59:04.699Z,18.80
2023-02-22T10:01:36.577Z,18.70
2023-02-22T10:04:11.669Z,18.70
2023-02-22T10:06:43.149Z,18.90
2023-02-22T10:09:12.222Z,18.90
2023-02-22T10:11:53.544Z,19.20
2023-02-22T10:14:49.264Z,19.40
2023-02-22T10:17:27.416Z,19.80
2023-02-22T10:20:07.975Z,20.40
2023-02-22T10:22:59.802Z,20.90
2023-02-22T10:25:30.127Z,21.30
2023-02-22T10:28:04.168Z,21.90
2023-02-22T10:30:36.723Z,21.70
2023-02-22T10:33:11.461Z,21.50
2023-02-22T10:35:41.216Z,21.40
2023-02-22T10:38:17.546Z,21.60
2023-02-22T10:40:49.265Z,21.50
2023-02-22T10:43:18.680Z,21.60
2023-02-22T10:45:46.731Z,21.80
2023-02-22T10:48:18.540Z,21.90
2023-02-22T10:50:47.617Z,22.40
2023-02-22T10:53:16.611Z,22.80
2023-02-22T10:56:10.222Z,23.00
2023-02-22T10:58:48.904Z,23.40
2023-02-22T11:01:27.654Z,23.70
2023-02-22T11:04:05.200Z,24.00
2023-02-22T11:06:34.449Z,24.00
2023-02-22T11:09:14.132Z,24.30
2023-02-22T11:11:45.378Z,24.40
2023-02-22T11:14:27.556Z,24.50
2023-02-22T11:16:57.720Z,24.30
2023-02-22T11:19:27.829Z,24.50
2023-02-22T11:21:59.668Z,24.80
2023-02-22T11:24:37.267Z,24.90
2023-02-22T11:27:08.929Z,24.80
2023-02-22T11:29:39.270Z,24.40
2023-02-22T11:32:15.903Z,24.30
2023-02-22T11:34:44.114Z,24.20
2023-02-22T11:37:30.564Z,23.90
2023-02-22T11:40:13.941Z,23.50
2023-02-22T11:42:42.019Z,23.20
2023-02-22T11:45:14.701Z,23.20
2023-02-22T11:47:53.521Z,23.10
2023-02-22T11:50:31.216Z,23.10
2023-02-22T11:53:25.456Z,23.00
2023-02-22T11:56:04.445Z,22.90
2023-02-22T11:58:42.510Z,23.00
2023-02-22T12:01:17.608Z,23.10
2023-02-22T12:04:09.136Z,22.90
2023-02-22T12:06:45.626Z,22.90
2023-02-22T12:09:21.776Z,22.80
2023-02-22T12:11:59.020Z,22.60
2023-02-22T12:14:35.558Z,22.50
2023-02-22T12:17:24.470Z,22.50
2023-02-22T12:20:00.012Z,22.50
2023-02-22T12:22:33.482Z,22.50
2023-02-22T12:25:09.863Z,22.00
2023-02-22T12:27:42.268Z,21.50
2023-02-22T12:30:17.421Z,21.00
2023-02-22T12:32:49.689Z,20.60
2023-02-22T12:35:22.644Z,20.60
2023-02-22T12:38:01.960Z,20.40
2023-02-22T12:40:36.522Z,20.30
2023-02-22T12:43:13.500Z,20.10
2023-02-22T12:45:48.323Z,19.80
2023-02-22T12:48:32.592Z,19.70
2023-02-22T12:51:08.474Z,19.60
2023-02-22T12:53:38.778Z,19.70
2023-02-22T12:56:19.933Z,19.60
2023-02-22T12:58:54.768Z,19.40
2023-02-22T13:01:27.055Z,19.20
2023-02-22T13:03:57.246Z,19.20
2023-02-22T13:06:48.621Z,19.00
2023-02-22T13:09:46.699Z,19.00
2023-02-22T13:12:24.236Z,19.00
2023-02-22T13:15:01.501Z,18.90
2023-02-22T13:17:37.213Z,18.90
2023-02-22T13:20:13.536Z,18.70
2023-02-22T13:22:45.959Z,18.90
2023-02-22T13:25:17.970Z,18.90
2023-02-22T13:27:52.582Z,18.80
2023-02-22T13:30:28.087Z,18.90
2023-02-22T13:33:21.274Z,18.80
2023-02-22T13:36:10.147Z,18.70
2023-02-22T13:38:55.726Z,18.70
2023-02-22T13:41:55.225Z,18.60
2023-02-22T13:44:45.976Z,18.60
2023-02-22T13:47:49.904Z,18.50
2023-02-22T13:50:36.918Z,18.60
2023-02-22T13:53:11.246Z,18.60
2023-02-22T13:55:42.381Z,18.50
2023-02-22T13:58:15.508Z,18.40
2023-02-22T14:00:48.095Z,18.40
2023-02-22T14:03:37.673Z,18.30
2023-02-22T14:06:07.063Z,18.20
2023-02-22T14:08:46.077Z,18.20
2023-02-22T14:11:56.760Z,18.10
2023-02-22T14:14:25.947Z,18.00
2023-02-22T14:17:21.982Z,18.00
2023-02-22T14:20:04.682Z,18.00
2023-02-22T14:22:32.854Z,18.00
2023-02-22T14:25:02.136Z,18.00
2023-02-22T14:27:41.661Z,17.90
2023-02-22T14:30:26.315Z,17.90
2023-02-22T14:32:54.648Z,17.80
2023-02-22T14:35:28.702Z,17.80
2023-02-22T14:38:03.860Z,17.70
2023-02-22T14:40:35.556Z,17.70
2023-02-22T14:43:10.181Z,17.70
2023-02-22T14:45:45.689Z,17.60
2023-02-22T14:48:21.618Z,17.60
2023-02-22T14:50:54.121Z,17.60
2023-02-22T14:53:27.824Z,17.60
2023-02-22T14:56:02.528Z,17.60
2023-02-22T14:58:37.475Z,17.50
2023-02-22T15:01:31.364Z,17.50
2023-02-22T15:04:22.569Z,17.50
2023-02-22T15:06:51.214Z,17.60
2023-02-22T15:09:27.714Z,17.60
2023-02-22T15:12:14.014Z,17.60
2023-02-22T15:14:44.870Z,17.50
2023-02-22T15:17:19.216Z,17.50
2023-02-22T15:19:49.662Z,17.50
2023-02-22T15:22:22.996Z,17.50
2023-02-22T15:25:02.549Z,17.50
2023-02-22T15:27:36.959Z,17.50
2023-02-22T15:30:07.927Z,17.50
2023-02-22T15:32:38.535Z,17.40
2023-02-22T15:35:16.626Z,17.40
2023-02-22T15:37:45.852Z,17.30
2023-02-22T15:40:17.386Z,17.30
2023-02-22T15:42:49.114Z,17.20
2023-02-22T15:45:20.283Z,17.20
2023-02-22T15:47:50.697Z,17.00
2023-02-22T15:50:30.860Z,17.00
2023-02-22T15:53:00.672Z,16.90
2023-02-22T15:55:31.713Z,16.90
2023-02-22T15:58:16.027Z,16.80
2023-02-22T16:00:49.099Z,16.70
2023-02-22T16:03:28.614Z,16.70
2023-02-22T16:05:58.778Z,16.60
2023-02-22T16:08:34.791Z,16.60
2023-02-22T16:11:15.946Z,16.50
2023-02-22T16:13:53.893Z,16.40
2023-02-22T16:16:27.583Z,16.40
2023-02-22T16:19:37.031Z,16.30
2023-02-22T16:22:13.726Z,16.20
2023-02-22T16:24:42.438Z,16.10
2023-02-22T16:27:24.211Z,16.00
2023-02-22T16:30:25.625Z,16.00
2023-02-22T16:32:55.226Z,15.90
2023-02-22T16:35:28.794Z,15.90
2023-02-22T16:38:01.457Z,15.90
2023-02-22T16:40:35.635Z,15.90
2023-02-22T16:43:08.948Z,15.80
2023-02-22T16:45:37.187Z,15.70
2023-02-22T16:48:21.501Z,15.60
2023-02-22T16:50:51.704Z,15.60
2023-02-22T16:53:23.912Z,15.50
2023-02-22T16:56:00.178Z,15.50
2023-02-22T16:58:29.796Z,15.40
2023-02-22T17:01:02.080Z,15.40
2023-02-22T17:03:39.548Z,15.40
2023-02-22T17:06:10.910Z,15.30
2023-02-22T17:08:41.475Z,15.30
2023-02-22T17:11:12.788Z,15.30
2023-02-22T17:13:41.666Z,15.20
2023-02-22T17:16:15.854Z,15.30
2023-02-22T17:18:46.190Z,15.20
2023-02-22T17:21:16.851Z,15.20
2023-02-22T17:23:58.354Z,15.10
2023-02-22T17:26:28.208Z,15.10
2023-02-22T17:28:56.708Z,15.20
2023-02-22T17:31:30.328Z,15.10
2023-02-22T17:34:02.939Z,15.10
2023-02-22T17:36:31.257Z,15.20
2023-02-22T17:39:10.769Z,15.10
2023-02-22T17:41:44.597Z,15.00
2023-02-22T17:44:30.972Z,15.00
2023-02-22T17:47:05.514Z,14.90
2023-02-22T17:49:56.562Z,14.80
2023-02-22T17:52:30.390Z,14.80
2023-02-22T17:55:22.422Z,14.80
2023-02-22T17:58:13.384Z,14.70
2023-02-22T18:00:44.664Z,14.60
2023-02-22T18:03:16.462Z,14.60
2023-02-22T18:05:46.828Z,14.60
2023-02-22T18:08:15.559Z,14.50
2023-02-22T18:10:45.949Z,14.50
2023-02-22T18:13:16.732Z,14.40
2023-02-22T18:15:45.394Z,14.40
2023-02-22T18:18:17.653Z,14.40
2023-02-22T18:20:51.431Z,14.30
2023-02-22T18:23:29.913Z,14.30
2023-02-22T18:26:11.964Z,14.30
2023-02-22T18:28:41.274Z,14.20
2023-02-22T18:31:10.552Z,14.10
2023-02-22T18:33:39.010Z,14.10
2023-02-22T18:36:09.668Z,14.10
2023-02-22T18:38:43.162Z,14.10
2023-02-22T18:41:14.826Z,14.10
2023-02-22T18:43:43.520Z,14.10
2023-02-22T18:46:13.638Z,14.00
2023-02-22T18:48:43.167Z,14.10
2023-02-22T18:51:13.285Z,14.10
2023-02-22T18:53:46.592Z,14.10
2023-02-22T18:56:22.123Z,14.10
2023-02-22T18:58:54.495Z,14.10
2023-02-22T19:01:22.616Z,14.10
2023-02-22T19:04:12.596Z,14.00
2023-02-22T19:06:51.880Z,14.00
2023-02-22T19:09:21.823Z,13.90
2023-02-22T19:12:42.391Z,13.90
2023-02-22T19:15:23.360Z,13.70
2023-02-22T19:18:17.232Z,13.70
2023-02-22T19:21:02.408Z,13.60
2023-02-22T19:23:49.371Z,13.60
2023-02-22T19:29:49.269Z,13.50
2023-02-22T19:32:51.898Z,13.50
2023-02-22T19:35:40.821Z,13.40
2023-02-22T19:38:52.167Z,13.40
2023-02-22T19:41:32.339Z,13.40
2023-02-22T19:47:14.866Z,13.30
2023-02-22T19:50:00.377Z,13.30
2023-02-22T19:52:46.871Z,13.20
2023-02-22T19:58:38.112Z,13.10
2023-02-22T20:01:44.902Z,13.10
2023-02-22T20:04:39.713Z,13.00
2023-02-22T20:07:15.613Z,13.00
2023-02-22T20:09:52.604Z,12.90
2023-02-22T20:12:32.607Z,12.90
2023-02-22T20:15:05.080Z,13.00
2023-02-22T20:17:38.536Z,12.80
2023-02-22T20:20:15.328Z,12.80
2023-02-22T20:22:48.203Z,12.80
2023-02-22T20:25:20.578Z,12.80
2023-02-22T20:27:57.518Z,12.90
2023-02-22T20:30:25.722Z,12.90
2023-02-22T20:33:30.746Z,12.80
2023-02-22T20:36:12.593Z,12.90
2023-02-22T20:39:08.303Z,12.80
2023-02-22T20:41:53.726Z,12.80
2023-02-22T20:44:35.847Z,12.80
2023-02-22T20:47:21.656Z,12.70
2023-02-22T20:50:45.590Z,12.60
2023-02-22T20:53:37.356Z,12.50
2023-02-22T20:56:08.305Z,12.60
2023-02-22T20:58:43.222Z,12.50
2023-02-22T21:01:20.650Z,12.50
2023-02-22T21:03:55.854Z,12.40
2023-02-22T21:06:40.606Z,12.50
2023-02-22T21:13:05.448Z,12.30
2023-02-22T21:19:58.284Z,12.40
2023-02-22T21:22:48.400Z,12.30
2023-02-22T21:29:51.939Z,12.30
2023-02-22T21:32:55.349Z,12.30
2023-02-22T21:39:28.606Z,12.40
2023-02-22T21:42:00.597Z,12.40
2023-02-22T21:44:28.805Z,12.40
2023-02-22T21:46:57.596Z,12.50
2023-02-22T21:49:26.073Z,12.50
2023-02-22T21:51:54.058Z,12.50
2023-02-22T21:54:23.086Z,12.50
2023-02-22T21:56:52.083Z,12.50
2023-02-22T21:59:23.767Z,12.40
2023-02-22T22:01:56.421Z,12.50
2023-02-22T22:04:40.245Z,12.40
2023-02-22T22:07:23.900Z,12.40
2023-02-22T22:09:56.639Z,12.30
2023-02-22T22:12:37.477Z,12.30
2023-02-22T22:15:10.271Z,12.30
2023-02-22T22:17:38.707Z,12.20
2023-02-22T22:20:38.112Z,12.20
2023-02-22T22:23:07.043Z,12.20
2023-02-22T22:25:38.109Z,12.20
2023-02-22T22:28:07.839Z,12.20
2023-02-22T22:30:37.776Z,12.20
2023-02-22T22:33:08.361Z,12.20
2023-02-22T22:35:39.140Z,12.20
2023-02-22T22:38:09.445Z,12.20
2023-02-22T22:40:53.102Z,12.20
2023-02-22T22:43:21.246Z,12.30
2023-02-22T22:45:50.693Z,12.30
2023-02-22T22:48:18.762Z,12.30
2023-02-22T22:50:46.785Z,12.30
2023-02-22T22:53:16.423Z,12.20
2023-02-22T22:55:44.780Z,12.20
2023-02-22T22:58:13.260Z,12.20
2023-02-22T23:00:41.870Z,12.10
2023-02-22T23:03:17.966Z,12.10
2023-02-22T23:05:46.357Z,12.10
2023-02-22T23:08:14.361Z,12.00
2023-02-22T23:10:42.796Z,12.00
2023-02-22T23:13:15.701Z,12.00
2023-02-22T23:15:47.813Z,11.90
2023-02-22T23:18:36.486Z,12.00
2023-02-22T23:21:05.549Z,11.90
2023-02-22T23:23:33.731Z,12.00
2023-02-22T23:26:17.837Z,11.90
2023-02-22T23:28:47.749Z,11.90
2023-02-22T23:31:17.802Z,11.90
2023-02-22T23:33:49.278Z,11.90
2023-02-22T23:36:18.731Z,11.90
2023-02-22T23:38:47.342Z,11.90
2023-02-22T23:41:17.466Z,11.90
2023-02-22T23:43:47.284Z,12.00
2023-02-22T23:46:18.652Z,11.90
2023-02-22T23:48:51.039Z,11.90
2023-02-22T23:51:25.229Z,11.90
2023-02-22T23:53:57.837Z,11.90
2023-02-22T23:56:28.536Z,12.00
2023-02-22T23:58:57.513Z,11.90
